Anatone, Washington
Current Conditions -  °F | °C
As of 2:56 AM on Tuesday 21 Oct 2014 (Local Time) from KLWS Reporting Station
Light Rain Light Rain  
Wind Chill: 53°   Ceiling: 6000
Heat Index: 53°   Visibility: 10mi
Dew Point: 49°   Wind: 3mph
Humidity: 86%   Direction: NA
Pressure: 29.86"   Gusts: NA
Location:  46.13°N, 117.13°W
Report Text: KLWS 210956Z AUTO VRB03KT 10SM -RA OVC060 12/09 A2986 RMK AO2 RAB19 SLP107 P0002 T01170094
Loading
Personal Weather Stations






























Interactive Weather Map
Tropical Storm Tracking
New forecast layout! Learn more

10-Day Weather Forecast

Advertisements
Track Severe Weather on mobile